createdAt,value
2019-02-18T00:04:22.246Z,7.17
2019-02-18T00:10:28.083Z,7.97
2019-02-18T00:16:33.841Z,7.97
2019-02-18T00:22:39.558Z,7.27
2019-02-18T00:28:45.333Z,7.67
2019-02-18T00:34:51.328Z,7.23
2019-02-18T00:40:57.326Z,7.50
2019-02-18T00:47:03.196Z,7.53
2019-02-18T00:53:09.059Z,8.50
2019-02-18T00:59:14.861Z,7.70
2019-02-18T01:05:21.063Z,7.67
2019-02-18T01:11:27.001Z,7.20
2019-02-18T01:17:33.054Z,7.33
2019-02-18T01:23:38.760Z,7.80
2019-02-18T01:29:44.478Z,7.60
2019-02-18T01:35:50.280Z,7.67
2019-02-18T01:41:56.283Z,7.73
2019-02-18T01:48:02.156Z,7.43
2019-02-18T01:54:07.843Z,7.27
2019-02-18T02:00:16.066Z,7.20
2019-02-18T02:06:22.162Z,7.17
2019-02-18T02:12:27.986Z,7.43
2019-02-18T02:18:33.953Z,7.67
2019-02-18T02:24:39.746Z,7.07
2019-02-18T02:30:46.432Z,6.80
2019-02-18T02:36:52.747Z,7.83
2019-02-18T02:42:59.520Z,7.33
2019-02-18T02:49:05.431Z,7.37
2019-02-18T02:55:11.270Z,7.23
2019-02-18T03:01:16.989Z,8.00
2019-02-18T03:07:23.031Z,7.53
2019-02-18T03:13:28.872Z,7.30
2019-02-18T03:19:34.736Z,7.37
2019-02-18T03:25:40.983Z,7.33
2019-02-18T03:31:46.756Z,7.23
2019-02-18T03:37:52.495Z,7.33
2019-02-18T03:43:58.354Z,6.83
2019-02-18T03:50:04.093Z,7.37
2019-02-18T03:56:09.803Z,7.57
2019-02-18T04:02:15.493Z,7.50
2019-02-18T04:08:21.202Z,7.13
2019-02-18T04:14:27.023Z,7.23
2019-02-18T04:20:32.794Z,7.13
2019-02-18T04:26:41.826Z,6.93
2019-02-18T04:32:47.776Z,7.00
2019-02-18T04:38:54.407Z,7.10
2019-02-18T04:45:00.747Z,6.93
2019-02-18T04:51:06.944Z,7.27
2019-02-18T04:57:12.780Z,7.73
2019-02-18T05:03:18.486Z,7.50
2019-02-18T05:09:24.551Z,7.57
2019-02-18T05:15:30.531Z,7.03
2019-02-18T05:21:36.415Z,7.97
2019-02-18T05:27:42.240Z,7.93
2019-02-18T05:33:48.120Z,8.50
2019-02-18T05:39:55.453Z,8.87
2019-02-18T05:46:01.951Z,13.20
2019-02-18T05:52:07.938Z,8.73
2019-02-18T05:58:14.229Z,8.13
2019-02-18T06:04:20.140Z,8.30
2019-02-18T06:10:26.091Z,7.07
2019-02-18T06:16:31.996Z,7.53
2019-02-18T06:22:38.827Z,6.83
2019-02-18T06:28:44.716Z,8.10
2019-02-18T06:34:50.569Z,7.90
2019-02-18T06:40:58.221Z,7.30
2019-02-18T06:47:08.652Z,9.20
2019-02-18T06:53:14.445Z,9.43
2019-02-18T06:59:27.962Z,9.37
2019-02-18T07:05:44.519Z,9.00
2019-02-18T07:11:55.760Z,6.77
2019-02-18T07:18:01.725Z,7.93
2019-02-18T07:24:07.677Z,7.17
2019-02-18T07:30:16.496Z,7.70
2019-02-18T07:36:22.669Z,7.57
2019-02-18T07:42:29.950Z,7.63
2019-02-18T07:48:36.791Z,6.60
2019-02-18T07:54:42.839Z,6.77
2019-02-18T08:00:48.682Z,7.00
2019-02-18T08:06:54.445Z,6.60
2019-02-18T08:13:00.280Z,6.70
2019-02-18T08:19:06.419Z,6.57
2019-02-18T08:25:12.202Z,6.77
2019-02-18T08:31:17.975Z,6.23
2019-02-18T08:37:23.800Z,6.33
2019-02-18T08:43:30.052Z,6.60
2019-02-18T08:49:35.815Z,10.97
2019-02-18T08:55:41.703Z,7.80
2019-02-18T09:01:47.380Z,6.40
2019-02-18T09:07:53.275Z,6.27
2019-02-18T09:13:59.168Z,7.13
2019-02-18T09:20:04.967Z,6.73
2019-02-18T09:26:12.174Z,6.10
2019-02-18T09:32:18.032Z,7.20
2019-02-18T09:38:25.215Z,6.60
2019-02-18T09:44:31.514Z,6.27
2019-02-18T09:50:37.542Z,6.67
2019-02-18T09:56:43.406Z,7.07
2019-02-18T10:02:49.400Z,6.77
2019-02-18T10:08:55.444Z,6.67
2019-02-18T10:15:01.290Z,6.93
2019-02-18T10:21:07.147Z,6.50
2019-02-18T10:27:13.123Z,7.27
2019-02-18T10:33:18.869Z,6.60
2019-02-18T10:39:24.904Z,6.70
2019-02-18T10:45:30.585Z,6.43
2019-02-18T10:51:36.427Z,6.43
2019-02-18T10:57:42.762Z,7.00
2019-02-18T11:03:48.725Z,6.90
2019-02-18T11:09:54.533Z,6.63
2019-02-18T11:16:00.257Z,6.50
2019-02-18T11:22:05.952Z,6.67
2019-02-18T11:28:12.493Z,6.90
2019-02-18T11:34:18.371Z,7.03
2019-02-18T11:40:24.149Z,7.43
2019-02-18T11:46:30.426Z,6.83
2019-02-18T11:52:36.396Z,7.23
2019-02-18T11:58:42.248Z,6.93
2019-02-18T12:04:48.329Z,6.83
2019-02-18T12:10:54.448Z,7.27
2019-02-18T12:17:00.501Z,6.70
2019-02-18T12:23:06.864Z,6.67
2019-02-18T12:29:12.735Z,6.20
2019-02-18T12:35:18.473Z,7.20
2019-02-18T12:41:25.182Z,7.20
2019-02-18T12:47:30.880Z,6.90
2019-02-18T12:53:36.771Z,7.17
2019-02-18T12:59:42.759Z,7.60
2019-02-18T13:05:49.238Z,7.40
2019-02-18T13:24:09.915Z,7.23
2019-02-18T13:30:17.456Z,6.87
2019-02-18T13:36:24.143Z,6.93
2019-02-18T13:42:30.026Z,7.13
2019-02-18T13:48:38.152Z,7.10
2019-02-18T13:54:44.630Z,7.10
2019-02-18T14:00:50.656Z,6.70
2019-02-18T14:06:56.647Z,7.37
2019-02-18T14:13:02.601Z,6.83
2019-02-18T14:19:08.524Z,7.60
2019-02-18T14:25:15.222Z,7.10
2019-02-18T14:31:21.328Z,7.87
2019-02-18T14:37:27.104Z,7.00
2019-02-18T14:43:32.978Z,6.40
2019-02-18T14:49:38.820Z,6.43
2019-02-18T14:55:44.784Z,6.70
2019-02-18T15:01:50.784Z,6.67
2019-02-18T15:07:56.810Z,7.73
2019-02-18T15:14:02.697Z,7.40
2019-02-18T15:20:09.172Z,8.30
2019-02-18T15:26:16.092Z,6.90
2019-02-18T15:32:22.677Z,7.10
2019-02-18T15:38:28.628Z,6.87
2019-02-18T15:44:35.291Z,7.70
2019-02-18T15:50:41.793Z,7.57
2019-02-18T15:56:47.617Z,6.80
2019-02-18T16:02:53.529Z,6.60
2019-02-18T16:08:59.474Z,6.37
2019-02-18T16:15:07.264Z,7.10
2019-02-18T16:21:13.393Z,6.40
2019-02-18T16:27:19.496Z,5.90
2019-02-18T16:33:25.527Z,6.07
2019-02-18T16:39:31.514Z,5.40
2019-02-18T16:45:38.137Z,4.57
2019-02-18T16:51:44.727Z,3.87
2019-02-18T16:57:50.567Z,3.90
2019-02-18T17:03:56.296Z,4.80
2019-02-18T17:10:02.234Z,3.70
2019-02-18T17:16:09.391Z,3.93
2019-02-18T17:22:15.201Z,4.20
2019-02-18T17:28:21.328Z,3.97
2019-02-18T17:34:27.048Z,4.83
2019-02-18T17:40:33.590Z,4.93
2019-02-18T17:46:39.523Z,4.87
2019-02-18T17:52:46.220Z,4.80
2019-02-18T17:58:54.430Z,4.90
2019-02-18T18:05:00.269Z,5.50
2019-02-18T18:11:06.249Z,5.40
2019-02-18T18:17:12.311Z,5.20
2019-02-18T18:23:18.230Z,5.30
2019-02-18T18:29:24.522Z,5.97
2019-02-18T18:35:30.378Z,6.00
2019-02-18T18:41:36.136Z,6.13
2019-02-18T18:47:44.459Z,6.80
2019-02-18T18:53:50.360Z,7.80
2019-02-18T18:59:56.152Z,6.97
2019-02-18T19:06:01.928Z,6.87
2019-02-18T19:12:07.694Z,8.00
2019-02-18T19:18:13.514Z,6.73
2019-02-18T19:24:19.326Z,7.03
2019-02-18T19:30:27.402Z,7.07
2019-02-18T19:36:33.334Z,7.00
2019-02-18T19:42:39.108Z,7.33
2019-02-18T19:48:44.942Z,7.37
2019-02-18T19:54:50.843Z,7.20
2019-02-18T20:00:57.001Z,7.07
2019-02-18T20:07:03.030Z,7.37
2019-02-18T20:13:08.759Z,7.73
2019-02-18T20:19:14.835Z,7.10
2019-02-18T20:25:20.600Z,7.70
2019-02-18T20:31:26.686Z,7.90
2019-02-18T20:37:33.024Z,6.87
2019-02-18T20:43:38.770Z,7.67
2019-02-18T20:49:44.944Z,8.30
2019-02-18T20:55:50.727Z,7.80
2019-02-18T21:01:56.601Z,7.63
2019-02-18T21:08:02.757Z,8.30
2019-02-18T21:14:15.895Z,8.13
2019-02-18T21:20:16.483Z,8.63
2019-02-18T21:26:23.078Z,8.50
2019-02-18T21:32:29.196Z,8.67
2019-02-18T21:38:54.026Z,9.30
2019-02-18T21:45:00.321Z,8.17
2019-02-18T21:51:06.160Z,8.47
2019-02-18T21:57:12.205Z,7.80
2019-02-18T22:03:18.729Z,8.63
2019-02-18T22:09:24.596Z,8.70
2019-02-18T22:15:30.834Z,8.43
2019-02-18T22:21:36.938Z,8.50
2019-02-18T22:27:43.284Z,9.00
2019-02-18T22:33:49.125Z,7.70
2019-02-18T22:39:55.126Z,8.70
2019-02-18T22:46:01.522Z,8.23
2019-02-18T22:52:07.400Z,8.20
2019-02-18T22:58:13.250Z,7.80
2019-02-18T23:04:19.253Z,7.90
2019-02-18T23:10:25.418Z,7.97
2019-02-18T23:16:31.545Z,8.10
2019-02-18T23:22:37.379Z,7.90
2019-02-18T23:28:43.518Z,7.67
2019-02-18T23:34:49.691Z,7.60
2019-02-18T23:40:55.539Z,7.37
2019-02-18T23:47:01.423Z,8.00
2019-02-18T23:53:07.624Z,7.47
2019-02-18T23:59:13.585Z,6.97
